Time;durP1;ratioP1;P1;durP2;ratioP2;P2;SDS_P1;SDS_P2;PMS_P1;PMS_P2;Temp;Humidity;BMP_temperature;BMP_pressure;BME280_temperature;BME280_humidity;BME280_pressure;Samples;Min_cycle;Max_cycle;Signal;HPM_P1;HPM_P2
2023/11/08 00:02:25;;;;;;;9.07;1.60;;;;;;;8.11;94.06;99454.94;5048390;28;20057;-47
2023/11/08 00:04:52;;;;;;;8.15;2.00;;;;;;;8.12;94.01;99444.69;5026246;28;20151;-44
2023/11/08 00:07:18;;;;;;;9.32;1.77;;;;;;;8.11;94.11;99435.63;5047325;28;20053;-43
2023/11/08 00:09:46;;;;;;;6.10;1.45;;;;;;;8.12;94.29;99436.44;5044369;28;20120;-45
2023/11/08 00:12:12;;;;;;;6.97;1.40;;;;;;;8.12;94.37;99431.72;5040330;28;20490;-44
2023/11/08 00:14:43;;;;;;;3.38;1.40;;;;;;;8.13;94.37;99419.53;5049859;28;20029;-43
2023/11/08 00:17:10;;;;;;;4.97;1.40;;;;;;;8.14;94.44;99414.81;5050316;28;20087;-45
2023/11/08 00:19:37;;;;;;;6.10;1.92;;;;;;;8.14;94.63;99403.78;5036993;28;20451;-46
2023/11/08 00:22:04;;;;;;;7.95;1.73;;;;;;;8.13;94.73;99397.47;5046471;28;20037;-45
2023/11/08 00:24:31;;;;;;;6.75;1.30;;;;;;;8.14;94.98;99403.78;5050129;28;20025;-44
2023/11/08 00:26:58;;;;;;;8.20;1.40;;;;;;;8.13;95.03;99377.41;5049625;28;20076;-47
2023/11/08 00:29:25;;;;;;;5.47;1.67;;;;;;;8.13;95.26;99371.88;5041408;28;20045;-46
2023/11/08 00:31:51;;;;;;;8.52;2.25;;;;;;;8.13;95.24;99369.13;5049777;28;20066;-45
2023/11/08 00:34:19;;;;;;;13.65;2.83;;;;;;;8.13;95.54;99363.63;5046074;28;20064;-44
2023/11/08 00:36:48;;;;;;;8.77;1.30;;;;;;;8.12;95.78;99362.00;5050105;28;20041;-46
2023/11/08 00:39:18;;;;;;;4.75;1.52;;;;;;;8.13;95.93;99347.06;5049983;28;20040;-46
2023/11/08 00:41:45;;;;;;;5.15;1.75;;;;;;;8.12;96.19;99331.69;5050133;28;20075;-45
2023/11/08 00:44:13;;;;;;;4.32;1.58;;;;;;;8.13;96.21;99325.03;5045794;28;20048;-44
2023/11/08 00:46:40;;;;;;;5.90;1.20;;;;;;;8.12;96.19;99321.47;5048495;28;20099;-44
2023/11/08 00:49:07;;;;;;;3.92;1.65;;;;;;;8.11;96.39;99308.03;5042479;28;20048;-44
2023/11/08 00:51:35;;;;;;;5.20;1.80;;;;;;;8.12;96.61;99302.16;5043702;28;20044;-46
2023/11/08 00:54:02;;;;;;;5.25;1.50;;;;;;;8.11;96.84;99288.72;5048842;28;20045;-43
2023/11/08 00:56:30;;;;;;;7.10;1.98;;;;;;;8.11;97.03;99283.22;5049297;28;20044;-46
2023/11/08 00:58:57;;;;;;;5.70;1.45;;;;;;;8.08;97.13;99276.47;5049167;28;20072;-47
2023/11/08 01:01:24;;;;;;;4.72;1.30;;;;;;;8.08;97.41;99267.41;5048439;28;20080;-45
2023/11/08 01:03:51;;;;;;;15.00;3.63;;;;;;;8.07;97.59;99261.13;5049528;28;20029;-47
2023/11/08 01:06:19;;;;;;;6.40;1.65;;;;;;;8.05;97.95;99252.41;5031879;28;20060;-47
2023/11/08 01:08:46;;;;;;;6.50;1.42;;;;;;;8.05;98.06;99248.88;5049210;28;20037;-47
2023/11/08 01:11:13;;;;;;;4.63;1.42;;;;;;;8.05;98.29;99235.84;5048341;28;20487;-44
2023/11/08 01:13:40;;;;;;;6.68;1.67;;;;;;;8.04;98.33;99233.47;5040068;28;20414;-47
2023/11/08 01:16:07;;;;;;;10.65;1.48;;;;;;;8.05;98.59;99215.78;5030829;28;20468;-46
2023/11/08 01:18:34;;;;;;;11.52;2.70;;;;;;;8.04;98.76;99216.94;5049757;28;20072;-47
2023/11/08 01:21:02;;;;;;;4.00;0.90;;;;;;;8.04;99.01;99216.94;5028410;28;20049;-44
2023/11/08 01:23:29;;;;;;;9.68;1.52;;;;;;;8.04;99.35;99200.41;5038737;28;20098;-46
2023/11/08 01:25:56;;;;;;;5.57;1.40;;;;;;;8.04;99.53;99201.22;5048085;28;20053;-44
2023/11/08 01:28:23;;;;;;;6.50;1.30;;;;;;;8.05;99.72;99185.47;5048084;28;20033;-47
2023/11/08 01:30:50;;;;;;;8.55;1.83;;;;;;;8.05;99.90;99179.97;5048163;28;20040;-44
2023/11/08 01:33:17;;;;;;;8.27;1.83;;;;;;;8.05;100.00;99175.22;5047417;28;20033;-43
2023/11/08 01:35:45;;;;;;;2.30;1.40;;;;;;;8.05;100.00;99152.41;5045587;28;20077;-43
2023/11/08 01:38:12;;;;;;;7.40;1.30;;;;;;;8.06;100.00;99142.97;5048952;28;20069;-45
2023/11/08 01:40:43;;;;;;;5.90;1.10;;;;;;;8.06;100.00;99132.75;5045211;28;20132;-45
2023/11/08 01:43:29;;;;;;;5.57;1.70;;;;;;;8.05;100.00;99119.34;5040305;28;20072;-44
2023/11/08 01:46:14;;;;;;;4.03;1.27;;;;;;;8.04;100.00;99113.03;5048457;28;20477;-42
2023/11/08 01:48:41;;;;;;;2.35;0.52;;;;;;;8.05;100.00;99108.31;5048557;28;20033;-44
2023/11/08 01:51:09;;;;;;;2.60;1.48;;;;;;;8.04;100.00;99090.97;5048551;28;20045;-42
2023/11/08 01:53:40;;;;;;;6.93;1.42;;;;;;;8.06;100.00;99079.56;5048601;28;20036;-44
2023/11/08 01:56:07;;;;;;;3.60;1.17;;;;;;;8.05;100.00;99064.22;5048586;28;20041;-44
2023/11/08 01:58:38;;;;;;;5.70;1.10;;;;;;;8.06;100.00;99054.75;5048744;28;20078;-43
2023/11/08 02:01:13;;;;;;;3.15;1.27;;;;;;;8.07;100.00;99048.91;5047835;28;20069;-44
2023/11/08 02:03:41;;;;;;;4.90;0.95;;;;;;;8.09;100.00;99037.50;5048653;28;20387;-46
2023/11/08 02:06:10;;;;;;;4.88;1.15;;;;;;;8.10;100.00;99028.06;5047587;28;20041;-46
2023/11/08 02:08:41;;;;;;;2.78;0.90;;;;;;;8.10;100.00;99011.53;5035722;28;20136;-42
2023/11/08 02:11:09;;;;;;;6.97;0.90;;;;;;;8.13;100.00;98997.00;5048080;28;20087;-46
2023/11/08 02:13:35;;;;;;;1.55;0.60;;;;;;;8.16;100.00;98996.25;5030769;28;20505;-47
2023/11/08 02:16:02;;;;;;;3.45;0.77;;;;;;;8.19;100.00;98981.72;5034233;28;20049;-50
2023/11/08 02:18:32;;;;;;;3.35;0.47;;;;;;;8.20;100.00;98958.53;5048355;28;20494;-48
2023/11/08 02:21:00;;;;;;;2.25;0.73;;;;;;;8.22;100.00;98950.66;5046117;28;20053;-46
2023/11/08 02:23:31;;;;;;;2.60;0.77;;;;;;;8.24;100.00;98940.06;5047770;28;20106;-46
2023/11/08 02:25:59;;;;;;;5.25;1.20;;;;;;;8.26;100.00;98935.75;5047572;28;20710;-48
2023/11/08 02:28:26;;;;;;;5.55;0.50;;;;;;;8.28;100.00;98918.88;5043209;28;20057;-44
2023/11/08 02:30:54;;;;;;;3.22;1.77;;;;;;;8.30;100.00;98905.50;5041197;28;20128;-44
2023/11/08 02:33:26;;;;;;;6.35;1.38;;;;;;;8.33;100.00;98891.78;5038935;28;20037;-48
2023/11/08 02:35:53;;;;;;;6.60;1.55;;;;;;;8.35;100.00;98877.59;5045749;28;20530;-44
2023/11/08 02:38:20;;;;;;;1.75;0.40;;;;;;;8.38;100.00;98885.13;5046598;28;20055;-44
2023/11/08 02:40:47;;;;;;;0.98;0.43;;;;;;;8.40;100.00;98869.00;5046892;28;20124;-48
2023/11/08 02:43:14;;;;;;;1.95;0.40;;;;;;;8.43;100.00;98854.47;5047013;28;20037;-43
2023/11/08 02:45:41;;;;;;;2.45;0.63;;;;;;;8.45;100.00;98855.66;5046378;28;20566;-47
2023/11/08 02:48:08;;;;;;;2.70;0.40;;;;;;;8.47;100.00;98833.25;5047880;28;20174;-44
2023/11/08 02:50:37;;;;;;;5.03;0.40;;;;;;;8.49;100.00;98825.38;5042362;28;20036;-44
2023/11/08 02:53:05;;;;;;;1.73;0.30;;;;;;;8.52;100.00;98810.84;5047061;28;20136;-52
2023/11/08 02:55:34;;;;;;;1.95;0.20;;;;;;;8.53;100.00;98812.41;5044893;28;20509;-44
2023/11/08 02:58:01;;;;;;;1.83;0.30;;;;;;;8.54;100.00;98797.47;5038859;28;20076;-48
2023/11/08 03:03:06;;;;;;;1.38;0.35;;;;;;;8.56;100.00;98782.13;5085281;23;20804;-42
2023/11/08 03:05:33;;;;;;;1.48;0.30;;;;;;;8.58;100.00;98767.94;5086617;28;20114;-47
2023/11/08 03:08:00;;;;;;;0.00;0.00;;;;;;;8.58;100.00;98751.38;5086177;28;20051;-43
2023/11/08 03:10:26;;;;;;;0.45;0.10;;;;;;;8.62;100.00;98757.75;5086483;28;20036;-43
2023/11/08 03:12:54;;;;;;;2.72;0.30;;;;;;;8.64;100.00;98736.09;5087176;28;20078;-41
2023/11/08 03:15:22;;;;;;;1.00;0.17;;;;;;;8.68;100.00;98727.84;5069117;28;20047;-42
2023/11/08 03:17:51;;;;;;;0.50;0.20;;;;;;;8.68;100.00;98723.13;5077577;28;20098;-42
2023/11/08 03:20:19;;;;;;;0.55;0.22;;;;;;;8.70;100.00;98714.47;5093256;28;20035;-44
2023/11/08 03:22:46;;;;;;;1.70;0.05;;;;;;;8.70;100.00;98693.19;5093285;28;20058;-46
2023/11/08 03:25:16;;;;;;;0.80;0.20;;;;;;;8.72;100.00;98699.09;5075637;28;20036;-41
2023/11/08 03:27:46;;;;;;;0.00;0.00;;;;;;;8.73;100.00;98692.44;5093336;28;20040;-41
2023/11/08 03:30:15;;;;;;;0.73;0.00;;;;;;;8.77;100.00;98687.72;5090601;28;20036;-41
2023/11/08 03:32:43;;;;;;;0.05;0.00;;;;;;;8.81;100.00;98683.03;5092168;28;20038;-43
2023/11/08 03:35:11;;;;;;;0.00;0.00;;;;;;;8.86;100.00;98676.34;5091955;28;20033;-43
2023/11/08 03:37:39;;;;;;;0.10;0.08;;;;;;;8.88;100.00;98677.56;5093583;28;20427;-46
2023/11/08 03:40:11;;;;;;;0.00;0.00;;;;;;;8.91;100.00;98656.69;5092860;28;20543;-44
2023/11/08 03:42:39;;;;;;;0.00;0.00;;;;;;;8.93;100.00;98662.59;5092863;28;20071;-44
2023/11/08 03:45:08;;;;;;;0.08;0.03;;;;;;;8.97;100.00;98650.41;5092087;28;20036;-43
2023/11/08 03:47:36;;;;;;;1.05;0.08;;;;;;;9.00;100.00;98649.63;5089484;28;20123;-43
2023/11/08 03:50:04;;;;;;;0.20;0.10;;;;;;;9.05;100.00;98640.97;5092448;28;20493;-50
2023/11/08 03:52:31;;;;;;;0.00;0.00;;;;;;;9.09;100.00;98638.25;5088920;28;20113;-41
2023/11/08 03:54:57;;;;;;;0.40;0.40;;;;;;;9.13;100.00;98628.78;5092929;28;20051;-44
2023/11/08 03:57:24;;;;;;;0.00;0.00;;;;;;;9.17;100.00;98635.13;5074329;28;20135;-42
2023/11/08 03:59:53;;;;;;;0.00;0.00;;;;;;;9.22;100.00;98633.97;5093371;28;20462;-41
2023/11/08 04:02:21;;;;;;;0.35;0.00;;;;;;;9.23;100.00;98632.00;5093321;28;20106;-42
2023/11/08 04:04:48;;;;;;;0.00;0.00;;;;;;;9.24;100.00;98622.56;5093394;28;20044;-43
2023/11/08 04:07:15;;;;;;;0.00;0.00;;;;;;;9.26;100.00;98617.44;5094221;28;20040;-48
2023/11/08 04:09:43;;;;;;;0.00;0.00;;;;;;;9.28;100.00;98620.59;5092658;28;20043;-43
2023/11/08 04:12:11;;;;;;;0.20;0.20;;;;;;;9.31;100.00;98633.63;5093532;28;20040;-42
2023/11/08 04:14:38;;;;;;;0.10;0.00;;;;;;;9.32;100.00;98627.69;5092671;28;20055;-42
2023/11/08 04:17:08;;;;;;;0.08;0.00;;;;;;;9.34;100.00;98630.09;5092286;28;20036;-43
2023/11/08 04:19:36;;;;;;;0.00;0.00;;;;;;;9.35;100.00;98626.13;5089457;28;20048;-45
2023/11/08 04:22:05;;;;;;;0.00;0.00;;;;;;;9.35;100.00;98628.91;5093559;28;20052;-43
2023/11/08 04:24:33;;;;;;;0.15;0.00;;;;;;;9.35;100.00;98639.94;5093401;28;20569;-42
2023/11/08 04:27:02;;;;;;;0.20;0.00;;;;;;;9.35;100.00;98623.38;5092653;28;20051;-41
2023/11/08 04:29:31;;;;;;;0.28;0.05;;;;;;;9.35;100.00;98628.91;5083629;28;20036;-42
2023/11/08 04:31:58;;;;;;;0.30;0.10;;;;;;;9.35;100.00;98623.38;5082376;28;20044;-44
2023/11/08 04:34:25;;;;;;;0.00;0.00;;;;;;;9.37;100.00;98629.31;5089789;28;20449;-41
2023/11/08 04:36:52;;;;;;;0.00;0.00;;;;;;;9.37;100.00;98616.28;5089335;28;20105;-42
2023/11/08 04:39:21;;;;;;;0.20;0.00;;;;;;;9.42;100.00;98632.50;5088512;28;20046;-42
2023/11/08 04:41:51;;;;;;;0.10;0.00;;;;;;;9.52;100.00;98628.19;5089260;28;20093;-42
2023/11/08 04:44:18;;;;;;;0.73;0.00;;;;;;;9.61;100.00;98625.84;5089561;28;20040;-41
2023/11/08 04:46:46;;;;;;;0.05;0.00;;;;;;;9.71;100.00;98620.38;5089413;28;20051;-47
2023/11/08 04:49:13;;;;;;;0.00;0.00;;;;;;;9.79;100.00;98621.16;5084916;28;20069;-43
2023/11/08 04:51:43;;;;;;;0.40;0.00;;;;;;;9.85;100.00;98629.88;5088872;28;20093;-43
2023/11/08 04:54:09;;;;;;;0.47;0.10;;;;;;;9.89;100.00;98658.28;5088735;28;20040;-42
2023/11/08 04:56:36;;;;;;;0.00;0.00;;;;;;;9.92;100.00;98641.72;5089568;28;20491;-44
2023/11/08 04:59:06;;;;;;;0.10;0.10;;;;;;;9.94;100.00;98655.16;5088903;28;20631;-42
2023/11/08 05:01:33;;;;;;;0.55;0.00;;;;;;;9.93;100.00;98687.50;5084952;28;20048;-41
2023/11/08 05:04:00;;;;;;;0.30;0.00;;;;;;;9.94;100.00;98680.03;5089315;28;20060;-41
2023/11/08 05:06:27;;;;;;;0.55;0.20;;;;;;;9.92;100.00;98690.69;5089534;28;20046;-42
2023/11/08 05:08:54;;;;;;;1.67;0.20;;;;;;;9.86;100.00;98708.81;5088973;28;20042;-42
2023/11/08 05:11:21;;;;;;;0.70;0.25;;;;;;;9.79;100.00;98702.06;5088455;28;20105;-41
2023/11/08 05:13:48;;;;;;;1.35;0.32;;;;;;;9.70;100.00;98695.34;5088693;28;20040;-41
2023/11/08 05:16:21;;;;;;;6.32;0.60;;;;;;;9.63;100.00;98707.16;5088764;28;20093;-41
2023/11/08 05:18:49;;;;;;;3.13;0.43;;;;;;;9.56;100.00;98712.63;5088991;28;20124;-42
2023/11/08 05:21:18;;;;;;;5.45;0.68;;;;;;;9.50;100.00;98707.88;5089464;28;20060;-43
2023/11/08 05:23:45;;;;;;;8.35;0.82;;;;;;;9.45;100.00;98711.03;5088616;28;20136;-42
2023/11/08 05:26:12;;;;;;;4.35;0.90;;;;;;;9.41;100.00;98708.22;5088347;28;20086;-42
2023/11/08 05:28:38;;;;;;;4.57;1.30;;;;;;;9.37;100.00;98715.69;5087644;28;20040;-41
2023/11/08 05:31:05;;;;;;;16.67;2.63;;;;;;;9.33;100.00;98722.38;5087752;28;20039;-41
2023/11/08 05:33:32;;;;;;;2.30;0.88;;;;;;;9.30;100.00;98725.91;5089015;28;20704;-42
2023/11/08 05:35:59;;;;;;;6.82;1.10;;;;;;;9.24;100.00;98725.47;5088027;28;20044;-46
2023/11/08 05:38:27;;;;;;;9.95;1.25;;;;;;;9.22;100.00;98729.81;5088513;28;20157;-43
2023/11/08 05:40:54;;;;;;;4.15;1.00;;;;;;;9.17;100.00;98729.00;5088677;28;20040;-45
2023/11/08 05:43:21;;;;;;;7.22;0.93;;;;;;;9.15;100.00;98731.38;5088823;28;20039;-42
2023/11/08 05:45:48;;;;;;;8.52;1.20;;;;;;;9.12;100.00;98732.13;5086792;28;20505;-42
2023/11/08 05:48:16;;;;;;;4.03;1.10;;;;;;;9.10;100.00;98737.25;5088104;28;20067;-42
2023/11/08 05:50:44;;;;;;;18.73;2.55;;;;;;;9.08;100.00;98739.59;5088886;28;20024;-41
2023/11/08 05:53:15;;;;;;;6.97;1.67;;;;;;;9.06;100.00;98743.91;5088238;28;20037;-42
2023/11/08 05:55:42;;;;;;;9.35;1.65;;;;;;;9.04;100.00;98763.63;5088088;28;20517;-42
2023/11/08 05:58:09;;;;;;;13.13;1.55;;;;;;;9.02;100.00;98771.50;5087392;28;20414;-41
2023/11/08 06:00:40;;;;;;;11.32;2.08;;;;;;;9.02;100.00;98778.97;5087835;28;20054;-43
2023/11/08 06:03:07;;;;;;;12.43;1.48;;;;;;;9.01;100.00;98780.13;5087430;28;20052;-41
2023/11/08 06:05:34;;;;;;;13.20;2.40;;;;;;;8.98;100.00;98792.75;5088149;28;20481;-41
2023/11/08 06:08:03;;;;;;;11.07;2.60;;;;;;;8.98;100.00;98803.78;5087627;28;20063;-43
2023/11/08 06:10:32;;;;;;;13.85;3.83;;;;;;;8.98;100.00;98798.25;5086638;28;20228;-43
2023/11/08 06:13:00;;;;;;;10.93;2.10;;;;;;;8.94;100.00;98811.25;5087379;28;20051;-47
2023/11/08 06:15:27;;;;;;;10.60;1.65;;;;;;;8.93;100.00;98820.69;5087506;28;20036;-44
2023/11/08 06:17:54;;;;;;;12.10;2.67;;;;;;;8.88;100.00;98832.09;5087069;28;20500;-47
2023/11/08 06:20:22;;;;;;;11.25;2.03;;;;;;;8.86;100.00;98837.19;5086938;28;20062;-45
2023/11/08 06:22:49;;;;;;;12.35;1.67;;;;;;;8.82;100.00;98847.38;5087103;28;20055;-46
2023/11/08 06:25:16;;;;;;;8.63;1.50;;;;;;;8.80;100.00;98841.47;5088015;28;20039;-42
2023/11/08 06:27:56;;;;;;;16.73;1.80;;;;;;;8.79;100.00;98861.94;5087996;28;20139;-46
2023/11/08 06:30:23;;;;;;;5.32;1.65;;;;;;;8.77;100.00;98880.03;5088099;28;20497;-41
2023/11/08 06:32:50;;;;;;;10.55;1.38;;;;;;;8.74;100.00;98859.53;5087516;28;20131;-42
2023/11/08 06:35:17;;;;;;;5.68;1.50;;;;;;;8.65;100.00;98878.38;5087405;28;20127;-42
2023/11/08 06:37:44;;;;;;;6.10;1.20;;;;;;;8.61;100.00;98879.47;5083785;28;20036;-41
2023/11/08 06:40:13;;;;;;;12.50;1.85;;;;;;;8.52;100.00;98885.31;5087592;28;20392;-43
2023/11/08 06:42:39;;;;;;;11.80;2.53;;;;;;;8.45;100.00;98890.72;5086937;28;20769;-43
2023/11/08 06:45:07;;;;;;;24.63;5.30;;;;;;;8.41;100.00;98887.16;5087094;28;20070;-42
2023/11/08 06:47:33;;;;;;;10.32;2.08;;;;;;;8.36;100.00;98891.03;5087202;28;20136;-46
2023/11/08 06:50:01;;;;;;;13.30;1.80;;;;;;;8.31;100.00;98898.84;5087767;28;20052;-47
2023/11/08 06:52:28;;;;;;;11.40;3.25;;;;;;;8.26;100.00;98897.16;5087440;28;20113;-43
2023/11/08 06:54:55;;;;;;;12.57;1.85;;;;;;;8.21;100.00;98904.97;5087532;28;20032;-46
2023/11/08 06:57:22;;;;;;;12.88;1.90;;;;;;;8.14;100.00;98907.63;5065217;28;20067;-46
2023/11/08 06:59:48;;;;;;;11.20;2.15;;;;;;;8.13;100.00;98912.34;5076525;28;20055;-43
2023/11/08 07:02:15;;;;;;;14.70;2.05;;;;;;;8.10;100.00;98915.06;5086327;28;20044;-44
2023/11/08 07:04:42;;;;;;;8.27;1.20;;;;;;;8.07;100.00;98913.06;5087088;28;20037;-42
2023/11/08 07:07:10;;;;;;;6.25;1.75;;;;;;;8.05;100.00;98916.16;5080291;28;20051;-45
2023/11/08 07:09:37;;;;;;;8.75;1.30;;;;;;;8.02;100.00;98933.47;5055917;28;20082;-43
2023/11/08 07:12:04;;;;;;;9.60;1.52;;;;;;;7.96;100.00;98919.22;5084205;28;20033;-44
2023/11/08 07:14:31;;;;;;;13.05;2.55;;;;;;;7.96;100.00;98929.44;5087311;28;20040;-42
2023/11/08 07:16:57;;;;;;;7.05;1.45;;;;;;;7.92;100.00;98945.09;5086568;28;20176;-44
2023/11/08 07:19:24;;;;;;;7.38;1.45;;;;;;;7.91;100.00;98949.84;5084897;28;20040;-45
2023/11/08 07:21:52;;;;;;;11.90;1.50;;;;;;;7.89;100.00;98952.16;5085887;28;20658;-44
2023/11/08 07:24:18;;;;;;;12.75;1.95;;;;;;;7.88;100.00;98956.09;5086141;28;20060;-43
2023/11/08 07:26:47;;;;;;;9.55;1.38;;;;;;;7.88;100.00;98967.13;5068618;28;20067;-45
2023/11/08 07:29:13;;;;;;;7.95;1.70;;;;;;;7.85;100.00;98970.59;5078918;28;20040;-43
2023/11/08 07:31:40;;;;;;;7.78;1.90;;;;;;;7.84;100.00;98970.97;5083821;28;20032;-43
2023/11/08 07:34:07;;;;;;;13.13;2.42;;;;;;;7.80;100.00;98978.38;5086035;28;20063;-44
2023/11/08 07:36:34;;;;;;;7.75;1.75;;;;;;;7.77;100.00;98982.69;5086321;28;20113;-42
2023/11/08 07:39:02;;;;;;;8.25;2.13;;;;;;;7.74;100.00;98988.91;5083263;28;20143;-44
2023/11/08 07:41:30;;;;;;;8.70;1.50;;;;;;;7.72;100.00;98991.25;5086426;28;20039;-42
2023/11/08 07:43:57;;;;;;;11.55;2.00;;;;;;;7.72;100.00;98996.78;5085907;28;20121;-44
2023/11/08 07:46:25;;;;;;;16.42;1.90;;;;;;;7.70;100.00;99004.59;5083637;28;20043;-45
2023/11/08 07:48:55;;;;;;;9.63;1.50;;;;;;;7.70;100.00;99004.59;5086522;28;20723;-44
2023/11/08 07:51:25;;;;;;;5.80;1.70;;;;;;;7.67;100.00;99005.34;5079849;28;20442;-42
2023/11/08 07:53:56;;;;;;;7.63;1.33;;;;;;;7.66;100.00;99017.50;5086434;28;20044;-42
2023/11/08 07:56:23;;;;;;;8.88;2.25;;;;;;;7.64;100.00;99028.09;5090348;28;20036;-49
2023/11/08 07:58:50;;;;;;;9.43;1.70;;;;;;;7.64;100.00;99028.09;5082673;28;20051;-41
2023/11/08 08:01:18;;;;;;;8.13;2.08;;;;;;;7.63;100.00;99040.28;5084426;28;20094;-41
2023/11/08 08:03:47;;;;;;;8.77;2.25;;;;;;;7.62;100.00;99038.69;5067332;28;20546;-45
2023/11/08 08:06:14;;;;;;;8.52;1.77;;;;;;;7.59;100.00;99041.38;5084671;28;20092;-51
2023/11/08 08:08:43;;;;;;;5.80;2.25;;;;;;;7.59;100.00;99050.44;5089683;28;20474;-41
2023/11/08 08:11:12;;;;;;;11.00;2.10;;;;;;;7.56;100.00;99042.91;5089370;28;20044;-41
2023/11/08 08:13:38;;;;;;;12.20;2.25;;;;;;;7.57;100.00;99049.22;5089238;28;20032;-42
2023/11/08 08:16:06;;;;;;;10.23;2.20;;;;;;;7.57;100.00;99046.47;5083453;28;20068;-44
2023/11/08 08:18:36;;;;;;;12.52;3.17;;;;;;;7.55;100.00;99049.56;5069609;28;20131;-42
2023/11/08 08:21:04;;;;;;;11.90;2.55;;;;;;;7.57;100.00;99060.25;5084959;28;20064;-42
2023/11/08 08:23:30;;;;;;;10.43;2.33;;;;;;;7.58;100.00;99070.88;5088402;28;20505;-45
2023/11/08 08:25:57;;;;;;;8.18;1.90;;;;;;;7.58;100.00;99073.63;5088087;28;20130;-46
2023/11/08 08:28:24;;;;;;;7.38;1.70;;;;;;;7.59;100.00;99086.25;5067752;28;20115;-43
2023/11/08 08:30:51;;;;;;;9.52;2.78;;;;;;;7.58;100.00;99084.66;5083549;28;20086;-42
2023/11/08 08:33:18;;;;;;;12.80;3.17;;;;;;;7.59;100.00;99089.00;5086954;28;20032;-42
2023/11/08 08:35:44;;;;;;;13.82;2.30;;;;;;;7.59;100.00;99102.78;5070698;28;20056;-42
2023/11/08 08:38:11;;;;;;;8.82;2.40;;;;;;;7.60;100.00;99109.84;5076095;28;20054;-44
2023/11/08 08:40:38;;;;;;;9.25;2.60;;;;;;;7.63;100.00;99109.13;5087563;28;20036;-46
2023/11/08 08:43:05;;;;;;;17.80;3.03;;;;;;;7.63;100.00;99114.63;5088137;28;20147;-42
2023/11/08 08:45:33;;;;;;;11.73;3.20;;;;;;;7.65;100.00;99119.78;5078041;28;20051;-42
2023/11/08 08:48:00;;;;;;;19.10;3.95;;;;;;;7.65;100.00;99125.31;5085361;28;20135;-44
2023/11/08 08:50:28;;;;;;;14.55;3.53;;;;;;;7.65;100.00;99126.06;5086815;28;20112;-42
2023/11/08 08:52:55;;;;;;;16.38;3.75;;;;;;;7.68;100.00;99122.59;5087799;28;20382;-40
2023/11/08 08:55:21;;;;;;;26.60;2.97;;;;;;;7.69;100.00;99135.22;5087316;28;20103;-40
2023/11/08 08:57:49;;;;;;;16.60;3.80;;;;;;;7.69;100.00;99149.00;5087949;28;20089;-40
2023/11/08 09:00:18;;;;;;;12.18;3.30;;;;;;;7.69;100.00;99149.00;5088744;28;20162;-41
2023/11/08 09:02:46;;;;;;;17.05;3.75;;;;;;;7.70;100.00;99152.53;5087889;28;20432;-42
2023/11/08 09:05:18;;;;;;;13.05;4.47;;;;;;;7.69;100.00;99165.53;5086443;28;20435;-42
2023/11/08 09:07:47;;;;;;;18.67;3.28;;;;;;;7.68;100.00;99163.91;5087962;28;20135;-42
2023/11/08 09:10:15;;;;;;;13.63;3.30;;;;;;;7.70;100.00;99169.88;5087980;28;20541;-42
2023/11/08 09:12:42;;;;;;;16.35;3.45;;;;;;;7.75;100.00;99177.03;5087718;28;20134;-41
2023/11/08 09:15:12;;;;;;;14.52;2.80;;;;;;;7.76;100.00;99179.41;5085897;28;20040;-43
2023/11/08 09:17:40;;;;;;;19.77;3.33;;;;;;;7.78;99.95;99182.59;5088012;28;20125;-41
2023/11/08 09:20:08;;;;;;;17.10;4.75;;;;;;;7.77;99.56;99186.53;5086986;28;20036;-43
2023/11/08 09:22:37;;;;;;;16.63;3.03;;;;;;;7.78;99.52;99181.81;5087562;28;20043;-41
2023/11/08 09:25:07;;;;;;;24.50;3.88;;;;;;;7.78;99.29;99190.88;5087790;28;20391;-42
2023/11/08 09:27:37;;;;;;;31.42;4.05;;;;;;;7.78;99.11;99201.88;5086866;28;20040;-40
2023/11/08 09:30:07;;;;;;;26.02;4.60;;;;;;;7.80;99.07;99207.84;5082532;28;20071;-41
2023/11/08 09:32:35;;;;;;;12.55;2.72;;;;;;;7.83;98.92;99206.31;5086945;28;20063;-44
2023/11/08 09:35:02;;;;;;;16.20;3.80;;;;;;;7.86;98.78;99211.88;5082032;28;20032;-42
2023/11/08 09:37:29;;;;;;;25.60;5.32;;;;;;;7.85;98.39;99215.00;5069801;28;20049;-42
2023/11/08 09:39:58;;;;;;;14.77;2.97;;;;;;;7.86;98.10;99216.63;5087250;28;20061;-41
2023/11/08 09:42:29;;;;;;;12.27;3.00;;;;;;;7.89;98.13;99216.66;5087247;28;20039;-41
2023/11/08 09:45:00;;;;;;;11.27;2.97;;;;;;;7.91;98.01;99228.16;5088302;28;20032;-42
2023/11/08 09:47:27;;;;;;;22.48;3.70;;;;;;;7.89;97.63;99227.69;5072718;28;20435;-44
2023/11/08 09:49:56;;;;;;;18.15;4.50;;;;;;;7.88;97.57;99228.06;5086894;28;20148;-41
2023/11/08 09:52:23;;;;;;;15.32;3.75;;;;;;;7.86;97.46;99231.16;5068748;28;20040;-43
2023/11/08 09:54:50;;;;;;;20.38;3.70;;;;;;;7.85;97.21;99242.56;5087266;28;20428;-40
2023/11/08 09:57:19;;;;;;;14.68;3.42;;;;;;;7.82;96.81;99243.28;5087567;28;20038;-42
2023/11/08 09:59:47;;;;;;;22.33;2.95;;;;;;;7.78;96.68;99239.69;5086798;28;20814;-47
2023/11/08 10:02:16;;;;;;;21.00;4.40;;;;;;;7.78;96.60;99251.47;5087339;28;20075;-41
2023/11/08 10:04:43;;;;;;;21.60;6.10;;;;;;;7.78;96.36;99258.97;5085126;28;20140;-42
2023/11/08 10:07:13;;;;;;;18.08;4.30;;;;;;;7.78;96.13;99265.25;5079476;28;20044;-41
2023/11/08 10:09:41;;;;;;;19.10;3.50;;;;;;;7.75;95.90;99263.25;5087059;28;20394;-41
2023/11/08 10:12:08;;;;;;;17.98;3.85;;;;;;;7.73;95.75;99262.78;5085256;28;20713;-43
2023/11/08 10:14:40;;;;;;;20.52;4.22;;;;;;;7.73;95.74;99271.03;5083163;28;20040;-43
2023/11/08 10:17:08;;;;;;;13.70;3.03;;;;;;;7.71;95.55;99269.81;5079115;28;20051;-46
2023/11/08 10:19:55;;;;;;;19.23;3.22;;;;;;;7.69;95.43;99278.44;5086012;28;20074;-46
2023/11/08 10:22:25;;;;;;;21.48;3.40;;;;;;;7.67;95.11;99278.03;5085943;28;20044;-42
2023/11/08 10:24:57;;;;;;;16.77;2.80;;;;;;;7.64;95.14;99276.00;5085485;28;20565;-44
2023/11/08 10:27:24;;;;;;;19.80;3.58;;;;;;;7.62;94.98;99283.81;5084512;28;20109;-45
2023/11/08 10:29:54;;;;;;;18.52;3.67;;;;;;;7.59;94.88;99292.81;5082015;28;20090;-45
2023/11/08 10:32:24;;;;;;;19.48;5.13;;;;;;;7.56;94.65;99290.75;5084809;28;20039;-49
2023/11/08 10:34:52;;;;;;;28.25;4.95;;;;;;;7.52;94.77;99292.63;5081869;28;20036;-45
2023/11/08 10:37:26;;;;;;;17.15;4.00;;;;;;;7.51;94.58;99296.56;5084294;28;20093;-42
2023/11/08 10:39:57;;;;;;;12.85;3.80;;;;;;;7.48;94.56;99293.72;5084809;28;20101;-45
2023/11/08 10:42:24;;;;;;;17.30;3.35;;;;;;;7.44;94.40;99296.38;5085729;28;20101;-46
2023/11/08 10:44:54;;;;;;;16.75;3.03;;;;;;;7.44;94.54;99299.13;5066288;28;20888;-46
2023/11/08 10:47:21;;;;;;;17.80;3.80;;;;;;;7.44;94.40;99306.63;5083775;28;20120;-44
2023/11/08 10:49:51;;;;;;;18.83;3.13;;;;;;;7.42;94.29;99308.91;5084385;28;20044;-43
2023/11/08 10:52:18;;;;;;;21.77;3.08;;;;;;;7.40;94.37;99309.28;5063271;28;20484;-46
2023/11/08 10:54:47;;;;;;;20.27;4.13;;;;;;;7.41;94.41;99310.88;5086242;28;20064;-47
2023/11/08 10:57:16;;;;;;;15.57;4.10;;;;;;;7.42;94.25;99309.72;5071872;28;20040;-47
2023/11/08 10:59:50;;;;;;;16.65;3.15;;;;;;;7.46;94.36;99313.34;5085476;28;20568;-44
2023/11/08 11:02:28;;;;;;;15.95;3.28;;;;;;;7.49;94.27;99320.91;5084160;28;20080;-45
2023/11/08 11:05:08;;;;;;;22.15;6.03;;;;;;;7.54;94.11;99326.13;5084652;28;20128;-46
2023/11/08 11:07:42;;;;;;;19.70;4.07;;;;;;;7.58;94.00;99310.47;5066932;28;20126;-45
2023/11/08 11:10:10;;;;;;;18.10;3.70;;;;;;;7.63;93.98;99309.38;5083380;28;20127;-45
2023/11/08 11:12:43;;;;;;;23.33;3.63;;;;;;;7.67;94.25;99316.59;5084071;28;20497;-44
2023/11/08 11:15:18;;;;;;;18.55;3.95;;;;;;;7.68;93.88;99315.41;5083106;28;20127;-45
2023/11/08 11:17:52;;;;;;;28.60;3.63;;;;;;;7.68;93.61;99325.63;5079749;28;20117;-46
2023/11/08 11:20:22;;;;;;;26.85;5.30;;;;;;;7.67;93.48;99324.84;5085136;28;20047;-42
2023/11/08 11:22:49;;;;;;;15.00;3.40;;;;;;;7.68;93.47;99317.34;5085046;28;20093;-43
2023/11/08 11:25:47;;;;;;;19.05;3.22;;;;;;;7.73;93.67;99309.63;5083231;28;20048;-43
2023/11/08 11:28:34;;;;;;;21.60;2.90;;;;;;;7.76;93.49;99311.66;5080129;28;20037;-42
2023/11/08 11:31:32;;;;;;;16.10;3.58;;;;;;;7.81;93.38;99311.34;5083034;28;20032;-46
2023/11/08 11:34:14;;;;;;;25.60;4.97;;;;;;;7.85;93.25;99303.97;5084627;28;20127;-47
2023/11/08 11:39:38;;;;;;;21.40;3.78;;;;;;;7.95;92.97;99317.19;5088211;28;20340;-46
2023/11/08 11:42:12;;;;;;;23.08;3.72;;;;;;;8.00;92.92;99318.84;5084335;28;20522;-43
2023/11/08 11:44:38;;;;;;;20.67;3.47;;;;;;;8.06;92.50;99319.34;5085935;28;20565;-43